This is the latest recevied weather packets stored in our database for station/object WC4PEM-11. If no packets are shown the sender has not sent any weather packets the latest 10 day(s).
| Time | Temp. | Humidity | Pressure | Rain* | Wind** | Luminosity | Snow |
|---|---|---|---|---|---|---|---|
| 1777044658 | 27.22° C | 52% | 1014.9 hPa | 0 mm | - | - | - |
| 1777044513 | 27.22° C | 52% | 1014.9 hPa | 0 mm | - | - | - |
| 1777044213 | 27.22° C | 53% | 1015.1 hPa | 0 mm | - | - | - |
| 1777043913 | 26.11° C | 56% | 1015.2 hPa | 0 mm | - | - | - |
| 1777043613 | 25.56° C | 57% | 1015.2 hPa | 0 mm | - | - | - |
| 1777043313 | 25.56° C | 56% | 1015.3 hPa | 0 mm | - | - | - |
| 1777043013 | 26.11° C | 57% | 1015.4 hPa | 0 mm | - | - | - |
| 1777042713 | 26.11° C | 57% | 1015.4 hPa | 0 mm | - | - | - |
| 1777042463 | 25.56° C | 57% | 1015.5 hPa | 0 mm | - | - | - |
| 1777042413 | 25.56° C | 57% | 1015.5 hPa | 0 mm | - | - | - |
| 1777042113 | 25.56° C | 59% | 1015.5 hPa | 0 mm | - | - | - |
| 1777041953 | 25° C | 59% | 1015.5 hPa | 0 mm | - | - | - |
| 1777041813 | 25° C | 59% | 1015.5 hPa | 0 mm | - | - | - |
| 1777041513 | 25° C | 60% | 1015.5 hPa | 0 mm | - | - | - |
| 1777041213 | 25° C | 61% | 1015.4 hPa | 0 mm | - | - | - |
| 1777040913 | 24.44° C | 61% | 1015.4 hPa | 0 mm | - | - | - |
| 1777040613 | 24.44° C | 62% | 1015.3 hPa | 0 mm | - | - | - |
| 1777040313 | 24.44° C | 63% | 1015.3 hPa | 0 mm | - | - | - |
| 1777040217 | 23.89° C | 65% | 1015.4 hPa | 0 mm | - | - | - |
| 1777040013 | 24.44° C | 63% | 1015.3 hPa | 0 mm | - | - | - |
| 1777039853 | 23.89° C | 65% | 1015.4 hPa | 0 mm | - | - | - |
| 1777039713 | 23.89° C | 65% | 1015.4 hPa | 0 mm | - | - | - |
| 1777039413 | 23.89° C | 66% | 1015.4 hPa | 0 mm | - | - | - |
| 1777039113 | 23.89° C | 65% | 1015.4 hPa | 0 mm | - | - | - |
| 1777038949 | 23.33° C | 68% | 1015.1 hPa | 0 mm | - | - | - |
* Rain latest hour (hover to see other rain measurements)
** Current wind speed in m/s (hover to see current wind gust speed)